Orlando, Florida
Traffic Map
Current Weather Conditions
Orlando, Florida
Clear
Clear
20°
Feels Like: 20°
Wind Chill: 20° Ceiling: Unl
Heat Index: 20° Visibility: 10mi
Dew Point: 19° Wind: 5mph
Humidity: 96% Direction: 60° (ENE)
Pressure: 30.29in Gusts: 0mph
Raw Report DataKORL 200853Z AUTO 06004KT 10SM CLR 20/19 A3029 RMK AO2 SLP259 T02000194 58005
Traffic Incident Summary
Active as of:
Severity:
Category:
InformationThere was an issue retrieving the traffic information for this location. Please try a different location or try again shortly.
Advertisements